Main page
METAR-TAF:

METAR-TAF

Airports :

Hrodna Airport

Grodno, Belarus

latitude: 53-36-06N, longitude: 024-03-18E, elevation: 135 m

Current weather observation

The report was made 10 hours and 29 minutes ago, at 16:00 UTC
Wind 10 kt from the East/Northeast with gusts up to 16 kt
Temperature 18°C
Humidity 42%
Pressure 1023 hPa
Visibility 10 km or more
no clouds below 1500 m and no cumulonimbus

METAR: UMMG 211600Z 06005G08MPS CAVOK 18/05 Q1023 NOSIG

Time: 05:29 (02:29 UTC)

Forecast

The report was made 12 hours and 24 minutes ago, at 14:05 UTC
Forecast valid from 21 at 15 UTC to 21 at 24 UTC
Wind 12 kt from the East/Northeast with gusts up to 21 kt
Visibility 10 km or more
Broken clouds at a height of 2000 ft
Temporary
from 21 at 15 UTC to 21 at 21 UTC
Visibility: 4000 m
Broken clouds at a height of 1300 ft, Cumulonimbus.
light rain showers

TAF: UMMG 211405Z 2115/2124 07006G11MPS 9999 BKN020 TEMPO 2115/2121 4000 -SHRA BKN013CB

Weather observations and forecasts of more than 4000 airports (METAR and TAF reports).

The available stations are represented by yellow and red dots on the map.

Hover mouse over dot to see the name of the station.

Then click to see weather observations and forecasts.

To change the map : click on the green buttons with a black cross to zoom in, on the green button with a dash to zoom out, or on the green arrows for adjacent maps.


METAR-TAF: